Time,TemperatureF,DewpointF,PressureIn,WindDirection,WindDirectionDegrees,WindSpeedMPH,WindSpeedGustMPH,Humidity,HourlyPrecipIn,Conditions,Clouds,dailyrainin,SoftwareType,DateUTC
2013-01-05 00:00:00,23.8,16.1,30.18,SSW,202,16.0,34.0,72,0.00,,SKC,0.00,VWS V14.01,2013-01-05 05:00:00,
2013-01-05 00:15:00,23.9,15.6,30.16,SSW,202,15.0,35.0,70,0.00,,SKC,0.00,VWS V14.01,2013-01-05 05:15:00,
2013-01-05 00:30:00,24.2,15.2,30.18,SSW,202,14.0,37.0,68,0.00,,SKC,0.00,VWS V14.01,2013-01-05 05:30:00,
2013-01-05 00:45:00,24.5,14.8,30.14,SSW,202,15.0,36.0,66,0.00,,SKC,0.00,VWS V14.01,2013-01-05 05:45:00,
2013-01-05 01:00:00,24.4,14.7,30.14,SW,225,8.0,24.0,66,0.00,,SKC,0.00,VWS V14.01,2013-01-05 06:00:00,
2013-01-05 01:15:00,24.2,14.5,30.15,SW,225,6.0,19.0,66,0.00,,SKC,0.00,VWS V14.01,2013-01-05 06:15:00,
2013-01-05 01:30:00,23.3,15.9,30.17,SSW,202,18.0,38.0,73,0.00,,SKC,0.00,VWS V14.01,2013-01-05 06:30:00,
2013-01-05 01:45:00,24.1,15.1,30.17,South,180,18.0,42.0,68,0.00,,SKC,0.00,VWS V14.01,2013-01-05 06:45:00,
2013-01-05 02:00:00,24.2,14.8,30.17,South,180,16.0,43.0,67,0.00,,SKC,0.00,VWS V14.01,2013-01-05 07:00:00,
2013-01-05 02:15:00,23.8,15.5,30.17,South,180,10.0,26.0,70,0.00,,SKC,0.00,VWS V14.01,2013-01-05 07:15:00,
2013-01-05 02:30:00,23.6,15.6,30.18,SSW,202,11.0,31.0,71,0.00,,SKC,0.00,VWS V14.01,2013-01-05 07:30:00,
2013-01-05 02:45:00,23.9,15.2,30.17,SSW,202,13.0,37.0,69,0.00,,SKC,0.00,VWS V14.01,2013-01-05 07:45:00,
2013-01-05 03:00:00,23.8,15.1,30.19,South,180,13.0,35.0,69,0.00,,SKC,0.00,VWS V14.01,2013-01-05 08:00:00,
2013-01-05 03:15:00,24.2,14.8,30.19,SSW,202,14.0,39.0,67,0.00,,SKC,0.00,VWS V14.01,2013-01-05 08:15:00,
2013-01-05 03:30:00,24.1,15.1,30.18,South,180,14.0,32.0,68,0.00,,SKC,0.00,VWS V14.01,2013-01-05 08:30:00,
2013-01-05 03:45:00,23.9,15.2,30.19,South,180,14.0,39.0,69,0.00,,SKC,0.00,VWS V14.01,2013-01-05 08:45:00,
2013-01-05 04:00:00,23.6,15.3,30.20,South,180,14.0,40.0,70,0.00,,SKC,0.00,VWS V14.01,2013-01-05 09:00:00,
2013-01-05 04:15:00,23.6,15.3,30.23,South,180,14.0,32.0,70,0.00,,SKC,0.00,VWS V14.01,2013-01-05 09:15:00,
2013-01-05 04:30:00,23.8,15.1,30.21,South,180,12.0,34.0,69,0.00,,SKC,0.00,VWS V14.01,2013-01-05 09:30:00,
2013-01-05 04:45:00,24.5,14.4,30.20,South,180,13.0,38.0,65,0.00,,SKC,0.00,VWS V14.01,2013-01-05 09:45:00,
2013-01-05 05:00:00,25.0,14.2,30.21,SW,225,13.0,31.0,63,0.00,,SKC,0.00,VWS V14.01,2013-01-05 10:00:00,
2013-01-05 05:15:00,25.4,13.1,30.21,South,180,14.0,35.0,59,0.00,,SKC,0.00,VWS V14.01,2013-01-05 10:15:00,
2013-01-05 05:30:00,25.4,13.5,30.21,SSW,202,14.0,32.0,60,0.00,,SKC,0.00,VWS V14.01,2013-01-05 10:30:00,
2013-01-05 05:45:00,25.0,13.8,30.23,South,180,11.0,27.0,62,0.00,,SKC,0.00,VWS V14.01,2013-01-05 10:45:00,
2013-01-05 06:00:00,24.8,14.0,30.23,SSW,202,12.0,32.0,63,0.00,,SKC,0.00,VWS V14.01,2013-01-05 11:00:00,
2013-01-05 06:15:00,24.7,14.3,30.22,SSW,202,13.0,29.0,64,0.00,,SKC,0.00,VWS V14.01,2013-01-05 11:15:00,
2013-01-05 06:30:00,24.2,14.8,30.24,SSW,202,13.0,33.0,67,0.00,,SKC,0.00,VWS V14.01,2013-01-05 11:30:00,
2013-01-05 06:45:00,25.0,13.5,30.23,SSW,202,14.0,31.0,61,0.00,,SKC,0.00,VWS V14.01,2013-01-05 11:45:00,
2013-01-05 07:10:00,25.8,12.7,30.25,SW,226,5.0,21.0,57,0.00,,SKC,0.00,VWS V14.01,2013-01-05 12:10:00,
2013-01-05 07:16:00,26.1,12.2,30.25,SSW,206,13.0,30.0,55,0.00,,SKC,0.00,VWS V14.01,2013-01-05 12:16:00,
2013-01-05 07:23:00,26.4,11.6,30.25,WSW,248,15.0,22.0,53,0.00,,SKC,0.00,VWS V14.01,2013-01-05 12:23:00,
2013-01-05 07:29:00,26.3,11.5,30.25,WSW,246,18.0,29.0,53,0.00,,SKC,0.00,VWS V14.01,2013-01-05 12:29:00,
2013-01-05 07:35:00,26.3,11.5,30.25,South,172,23.0,33.0,53,0.00,,SKC,0.00,VWS V14.01,2013-01-05 12:35:00,
2013-01-05 07:41:00,26.4,11.6,30.26,SW,224,17.0,22.0,53,0.00,,SKC,0.00,VWS V14.01,2013-01-05 12:41:00,
2013-01-05 07:47:00,26.4,11.2,30.26,SSE,158,8.0,25.0,52,0.00,,SKC,0.00,VWS V14.01,2013-01-05 12:47:00,
2013-01-05 07:53:00,26.6,10.9,30.26,WSW,250,3.0,16.0,51,0.00,,SKC,0.00,VWS V14.01,2013-01-05 12:53:00,
2013-01-05 07:59:00,26.9,10.8,30.26,SSW,200,0.0,24.0,50,0.00,,SKC,0.00,VWS V14.01,2013-01-05 12:59:00,
2013-01-05 08:05:00,27.0,10.4,30.26,SSW,195,11.0,24.0,49,0.00,,SKC,0.00,VWS V14.01,2013-01-05 13:05:00,
2013-01-05 08:11:00,27.3,10.2,30.26,SSW,205,6.0,22.0,48,0.00,,SKC,0.00,VWS V14.01,2013-01-05 13:11:00,
2013-01-05 08:17:00,27.3,10.7,30.26,South,179,17.0,27.0,49,0.00,,SKC,0.00,VWS V14.01,2013-01-05 13:17:00,
2013-01-05 08:23:00,27.6,10.0,30.27,SSW,206,9.0,19.0,47,0.00,,SKC,0.00,VWS V14.01,2013-01-05 13:23:00,
2013-01-05 08:29:00,28.2,9.6,30.27,SSE,167,13.0,21.0,45,0.00,,SKC,0.00,VWS V14.01,2013-01-05 13:29:00,
2013-01-05 08:35:00,28.4,9.8,30.27,SW,231,12.0,21.0,45,0.00,,SKC,0.00,VWS V14.01,2013-01-05 13:35:00,
2013-01-05 08:41:00,28.2,10.6,30.28,SSW,203,12.0,19.0,47,0.00,,SKC,0.00,VWS V14.01,2013-01-05 13:41:00,
2013-01-05 08:47:00,27.8,11.1,30.28,SSW,194,7.0,19.0,49,0.00,,SKC,0.00,VWS V14.01,2013-01-05 13:47:00,
2013-01-05 08:53:00,26.7,13.1,30.29,SW,219,15.0,18.0,56,0.00,,SKC,0.00,VWS V14.01,2013-01-05 13:53:00,
2013-01-05 08:59:00,26.1,13.0,30.29,SW,236,19.0,20.0,57,0.00,,SKC,0.00,VWS V14.01,2013-01-05 13:59:00,
2013-01-05 09:05:00,26.7,11.9,30.29,SW,220,11.0,26.0,53,0.00,,SKC,0.00,VWS V14.01,2013-01-05 14:05:00,
2013-01-05 09:11:00,26.6,13.0,30.29,South,191,7.0,21.0,56,0.00,,SKC,0.00,VWS V14.01,2013-01-05 14:11:00,
2013-01-05 09:17:00,26.3,13.1,30.29,WSW,255,16.0,23.0,57,0.00,,SKC,0.00,VWS V14.01,2013-01-05 14:17:00,
2013-01-05 09:23:00,26.6,12.6,30.29,SW,220,6.0,22.0,55,0.00,,SKC,0.00,VWS V14.01,2013-01-05 14:23:00,
2013-01-05 09:29:00,27.5,11.8,30.29,SW,228,10.0,26.0,51,0.00,,SKC,0.00,VWS V14.01,2013-01-05 14:29:00,
2013-01-05 09:35:00,28.5,9.4,30.29,WSW,257,14.0,27.0,44,0.00,,SKC,0.00,VWS V14.01,2013-01-05 14:35:00,
2013-01-05 09:41:00,29.7,8.4,30.30,WSW,253,17.0,30.0,40,0.00,,SKC,0.00,VWS V14.01,2013-01-05 14:41:00,
2013-01-05 09:47:00,29.8,8.4,30.30,West,271,25.0,30.0,40,0.00,,SKC,0.00,VWS V14.01,2013-01-05 14:47:00,
2013-01-05 09:53:00,29.7,8.9,30.30,SW,219,22.0,28.0,41,0.00,,SKC,0.00,VWS V14.01,2013-01-05 14:53:00,
2013-01-05 09:59:00,30.6,8.0,30.30,SW,233,12.0,28.0,38,0.00,,SKC,0.00,VWS V14.01,2013-01-05 14:59:00,
2013-01-05 10:05:00,31.8,6.0,30.30,SW,223,18.0,28.0,33,0.00,,SKC,0.00,VWS V14.01,2013-01-05 15:05:00,
2013-01-05 10:11:00,32.7,6.1,30.29,WSW,248,17.0,25.0,32,0.00,,SKC,0.00,VWS V14.01,2013-01-05 15:11:00,
2013-01-05 10:17:00,32.5,5.9,30.29,SW,236,15.0,25.0,32,0.00,,SKC,0.00,VWS V14.01,2013-01-05 15:17:00,
2013-01-05 10:23:00,32.8,4.8,30.28,SW,219,10.0,23.0,30,0.00,,SKC,0.00,VWS V14.01,2013-01-05 15:23:00,
2013-01-05 10:29:00,32.9,6.3,30.28,WSW,245,10.0,25.0,32,0.00,,SKC,0.00,VWS V14.01,2013-01-05 15:29:00,
2013-01-05 10:35:00,33.1,5.1,30.28,West,279,5.0,25.0,30,0.00,,SKC,0.00,VWS V14.01,2013-01-05 15:35:00,
2013-01-05 10:41:00,33.4,3.0,30.28,WSW,249,12.0,24.0,27,0.00,,SKC,0.00,VWS V14.01,2013-01-05 15:41:00,
2013-01-05 10:47:00,34.7,4.2,30.28,NW,311,0.0,24.0,27,0.00,,SKC,0.00,VWS V14.01,2013-01-05 15:47:00,
2013-01-05 10:53:00,35.0,5.2,30.28,West,259,0.0,4.0,28,0.00,,SKC,0.00,VWS V14.01,2013-01-05 15:53:00,
2013-01-05 10:59:00,35.3,6.2,30.28,SW,231,7.0,13.0,29,0.00,,SKC,0.00,VWS V14.01,2013-01-05 15:59:00,
2013-01-05 11:05:00,35.5,6.4,30.28,WSW,238,3.0,13.0,29,0.00,,SKC,0.00,VWS V14.01,2013-01-05 16:05:00,
2013-01-05 11:11:00,35.3,7.0,30.28,WSW,240,0.0,13.0,30,0.00,,SKC,0.00,VWS V14.01,2013-01-05 16:11:00,
2013-01-05 11:17:00,35.8,5.9,30.28,WSW,242,3.0,13.0,28,0.00,,SKC,0.00,VWS V14.01,2013-01-05 16:17:00,
2013-01-05 11:23:00,36.3,7.1,30.28,WSW,241,0.0,0.0,29,0.00,,SKC,0.00,VWS V14.01,2013-01-05 16:23:00,
2013-01-05 11:30:00,37.3,7.2,30.28,WSW,241,2.0,4.0,28,0.00,,SKC,0.00,VWS V14.01,2013-01-05 16:30:00,
2013-01-05 11:36:00,37.5,7.4,30.26,WSW,241,1.0,6.0,28,0.00,,SKC,0.00,VWS V14.01,2013-01-05 16:36:00,
2013-01-05 11:42:00,37.3,6.4,30.26,SW,226,3.0,12.0,27,0.00,,SKC,0.00,VWS V14.01,2013-01-05 16:42:00,
2013-01-05 11:48:00,37.9,7.7,30.26,SW,226,0.0,12.0,28,0.00,,SKC,0.00,VWS V14.01,2013-01-05 16:48:00,
2013-01-05 11:54:00,37.0,8.5,30.25,SW,226,0.0,0.0,30,0.00,,SKC,0.00,VWS V14.01,2013-01-05 16:54:00,
2013-01-05 12:00:00,36.3,10.0,30.25,SW,226,0.0,0.0,33,0.00,,SKC,0.00,VWS V14.01,2013-01-05 17:00:00,
2013-01-05 12:06:00,36.0,10.4,30.25,SW,226,0.0,0.0,34,0.00,,SKC,0.00,VWS V14.01,2013-01-05 17:06:00,
2013-01-05 12:12:00,36.5,10.8,30.25,SW,226,0.0,0.0,34,0.00,,SKC,0.00,VWS V14.01,2013-01-05 17:12:00,
2013-01-05 12:18:00,36.6,10.9,30.25,SW,226,0.0,0.0,34,0.00,,SKC,0.00,VWS V14.01,2013-01-05 17:18:00,
2013-01-05 12:24:00,36.9,11.2,30.25,SW,226,0.0,0.0,34,0.00,,SKC,0.00,VWS V14.01,2013-01-05 17:24:00,
2013-01-05 12:30:00,36.9,12.4,30.25,SW,226,0.0,0.0,36,0.00,,SKC,0.00,VWS V14.01,2013-01-05 17:30:00,
2013-01-05 12:36:00,37.2,12.1,30.24,West,274,0.0,5.0,35,0.00,,SKC,0.00,VWS V14.01,2013-01-05 17:36:00,
2013-01-05 12:42:00,37.0,11.9,30.24,West,277,0.0,3.0,35,0.00,,SKC,0.00,VWS V14.01,2013-01-05 17:42:00,
2013-01-05 12:48:00,37.2,12.1,30.24,West,277,0.0,3.0,35,0.00,,SKC,0.00,VWS V14.01,2013-01-05 17:48:00,
2013-01-05 12:54:00,37.6,12.4,30.23,West,277,0.0,0.0,35,0.00,,SKC,0.00,VWS V14.01,2013-01-05 17:54:00,
2013-01-05 13:00:00,38.3,13.1,30.23,West,277,0.0,4.0,35,0.00,,SKC,0.00,VWS V14.01,2013-01-05 18:00:00,
2013-01-05 13:06:00,39.5,14.1,30.21,West,277,0.0,4.0,35,0.00,,SKC,0.00,VWS V14.01,2013-01-05 18:06:00,
2013-01-05 13:12:00,39.5,11.4,30.21,West,277,0.0,0.0,31,0.00,,SKC,0.00,VWS V14.01,2013-01-05 18:12:00,
2013-01-05 13:18:00,39.3,12.6,30.21,West,277,0.0,0.0,33,0.00,,SKC,0.00,VWS V14.01,2013-01-05 18:18:00,
2013-01-05 13:24:00,38.8,11.5,30.21,West,277,0.0,0.0,32,0.00,,SKC,0.00,VWS V14.01,2013-01-05 18:24:00,
2013-01-05 13:30:00,38.6,12.7,30.21,West,277,0.0,0.0,34,0.00,,SKC,0.00,VWS V14.01,2013-01-05 18:30:00,
2013-01-05 13:36:00,38.5,13.2,30.21,West,277,0.0,0.0,35,0.00,,SKC,0.00,VWS V14.01,2013-01-05 18:36:00,
2013-01-05 13:42:00,38.5,11.9,30.21,West,277,0.0,1.0,33,0.00,,SKC,0.00,VWS V14.01,2013-01-05 18:42:00,
2013-01-05 13:48:00,38.2,13.0,30.21,West,277,0.0,2.0,35,0.00,,SKC,0.00,VWS V14.01,2013-01-05 18:48:00,
2013-01-05 13:54:00,37.9,12.1,30.20,West,277,0.0,5.0,34,0.00,,SKC,0.00,VWS V14.01,2013-01-05 18:54:00,
2013-01-05 14:00:00,38.0,12.1,30.20,West,277,0.0,5.0,34,0.00,,SKC,0.00,VWS V14.01,2013-01-05 19:00:00,
2013-01-05 14:06:00,38.5,12.6,30.19,West,277,0.0,5.0,34,0.00,,SKC,0.00,VWS V14.01,2013-01-05 19:06:00,
2013-01-05 14:12:00,38.5,12.6,30.19,West,279,0.0,3.0,34,0.00,,SKC,0.00,VWS V14.01,2013-01-05 19:12:00,
2013-01-05 14:18:00,38.2,12.3,30.19,West,279,0.0,3.0,34,0.00,,SKC,0.00,VWS V14.01,2013-01-05 19:18:00,
2013-01-05 14:24:00,38.3,13.1,30.19,West,280,0.0,0.0,35,0.00,,SKC,0.00,VWS V14.01,2013-01-05 19:24:00,
2013-01-05 14:30:00,38.5,13.9,30.19,West,280,0.0,0.0,36,0.00,,SKC,0.00,VWS V14.01,2013-01-05 19:30:00,
2013-01-05 14:36:00,38.3,13.1,30.20,West,280,0.0,2.0,35,0.00,,SKC,0.00,VWS V14.01,2013-01-05 19:36:00,
2013-01-05 14:42:00,38.3,13.1,30.20,West,280,0.0,1.0,35,0.00,,SKC,0.00,VWS V14.01,2013-01-05 19:42:00,
2013-01-05 14:48:00,38.2,13.6,30.20,West,280,0.0,1.0,36,0.00,,SKC,0.00,VWS V14.01,2013-01-05 19:48:00,
2013-01-05 14:54:00,37.9,13.4,30.18,West,280,0.0,4.0,36,0.00,,SKC,0.00,VWS V14.01,2013-01-05 19:54:00,
2013-01-05 15:01:00,38.0,13.4,30.18,West,280,0.0,4.0,36,0.00,,SKC,0.00,VWS V14.01,2013-01-05 20:01:00,
2013-01-05 15:06:00,38.2,14.2,30.19,West,280,0.0,4.0,37,0.00,,SKC,0.00,VWS V14.01,2013-01-05 20:06:00,
2013-01-05 15:13:00,38.6,15.2,30.19,West,280,0.0,1.0,38,0.00,,SKC,0.00,VWS V14.01,2013-01-05 20:13:00,
2013-01-05 15:19:00,39.3,15.2,30.19,West,280,0.0,1.0,37,0.00,,SKC,0.00,VWS V14.01,2013-01-05 20:19:00,
2013-01-05 15:25:00,39.3,13.9,30.19,West,280,0.0,0.0,35,0.00,,SKC,0.00,VWS V14.01,2013-01-05 20:25:00,
2013-01-05 15:31:00,39.1,14.4,30.19,West,280,0.0,0.0,36,0.00,,SKC,0.00,VWS V14.01,2013-01-05 20:31:00,
2013-01-05 15:36:00,38.8,14.8,30.19,West,280,0.0,0.0,37,0.00,,SKC,0.00,VWS V14.01,2013-01-05 20:36:00,
2013-01-05 15:43:00,38.3,14.9,30.19,West,280,0.0,0.0,38,0.00,,SKC,0.00,VWS V14.01,2013-01-05 20:43:00,
2013-01-05 15:49:00,38.5,15.1,30.19,West,280,0.0,0.0,38,0.00,,SKC,0.00,VWS V14.01,2013-01-05 20:49:00,
2013-01-05 15:55:00,38.6,16.4,30.19,West,280,0.0,0.0,40,0.00,,SKC,0.00,VWS V14.01,2013-01-05 20:55:00,
2013-01-05 16:01:00,38.9,16.1,30.19,South,174,0.0,5.0,39,0.00,,SKC,0.00,VWS V14.01,2013-01-05 21:01:00,
2013-01-05 16:06:00,39.3,17.6,30.19,South,174,0.0,5.0,41,0.00,,SKC,0.00,VWS V14.01,2013-01-05 21:06:00,
2013-01-05 16:13:00,39.3,17.0,30.19,SSW,197,0.0,4.0,40,0.00,,SKC,0.00,VWS V14.01,2013-01-05 21:13:00,
2013-01-05 16:19:00,39.1,16.8,30.19,SSW,199,0.0,10.0,40,0.00,,SKC,0.00,VWS V14.01,2013-01-05 21:19:00,
2013-01-05 16:25:00,38.9,17.2,30.18,SSW,198,0.0,4.0,41,0.00,,SKC,0.00,VWS V14.01,2013-01-05 21:25:00,
2013-01-05 16:31:00,38.5,17.4,30.18,SSW,213,0.0,6.0,42,0.00,,SKC,0.00,VWS V14.01,2013-01-05 21:31:00,
2013-01-05 16:36:00,38.3,17.8,30.18,SSW,213,0.0,6.0,43,0.00,,SKC,0.00,VWS V14.01,2013-01-05 21:36:00,
2013-01-05 16:43:00,38.0,18.0,30.18,SSW,213,0.0,4.0,44,0.00,,SKC,0.00,VWS V14.01,2013-01-05 21:43:00,
2013-01-05 16:49:00,37.8,17.9,30.18,SSW,213,0.0,4.0,44,0.00,,SKC,0.00,VWS V14.01,2013-01-05 21:49:00,
2013-01-05 16:55:00,37.3,17.9,30.17,SSW,213,0.0,0.0,45,0.00,,SKC,0.00,VWS V14.01,2013-01-05 21:55:00,
2013-01-05 17:01:00,36.8,18.0,30.17,SSW,213,0.0,5.0,46,0.00,,SKC,0.00,VWS V14.01,2013-01-05 22:01:00,
2013-01-05 17:06:00,36.5,18.2,30.17,SSW,213,0.0,6.0,47,0.00,,SKC,0.00,VWS V14.01,2013-01-05 22:06:00,
2013-01-05 17:13:00,35.9,18.6,30.17,SSW,213,1.0,4.0,49,0.00,,SKC,0.00,VWS V14.01,2013-01-05 22:13:00,
2013-01-05 17:19:00,35.5,18.7,30.17,SSW,213,0.0,4.0,50,0.00,,SKC,0.00,VWS V14.01,2013-01-05 22:19:00,
2013-01-05 17:25:00,35.2,18.0,30.17,SSW,213,0.0,5.0,49,0.00,,SKC,0.00,VWS V14.01,2013-01-05 22:25:00,
2013-01-05 17:31:00,35.0,17.8,30.17,SSW,213,0.0,5.0,49,0.00,,SKC,0.00,VWS V14.01,2013-01-05 22:31:00,
2013-01-05 17:36:00,34.9,18.2,30.18,SSW,213,0.0,5.0,50,0.00,,SKC,0.00,VWS V14.01,2013-01-05 22:36:00,
2013-01-05 17:43:00,34.7,18.0,30.18,SSW,213,0.0,3.0,50,0.00,,SKC,0.00,VWS V14.01,2013-01-05 22:43:00,
2013-01-05 17:49:00,34.4,17.7,30.18,SSW,213,0.0,3.0,50,0.00,,SKC,0.00,VWS V14.01,2013-01-05 22:49:00,
2013-01-05 17:55:00,34.4,17.7,30.19,SSW,210,2.0,7.0,50,0.00,,SKC,0.00,VWS V14.01,2013-01-05 22:55:00,
2013-01-05 18:01:00,34.6,17.9,30.19,SSW,211,0.0,7.0,50,0.00,,SKC,0.00,VWS V14.01,2013-01-05 23:01:00,
2013-01-05 18:08:00,34.7,17.5,30.18,South,182,6.0,10.0,49,0.00,,SKC,0.00,VWS V14.01,2013-01-05 23:08:00,
2013-01-05 18:14:00,34.9,17.7,30.18,SSW,209,0.0,10.0,49,0.00,,SKC,0.00,VWS V14.01,2013-01-05 23:14:00,
2013-01-05 18:20:00,35.0,17.3,30.18,SSW,212,3.0,10.0,48,0.00,,SKC,0.00,VWS V14.01,2013-01-05 23:20:00,
2013-01-05 18:26:00,35.0,17.8,30.18,SSW,212,0.0,4.0,49,0.00,,SKC,0.00,VWS V14.01,2013-01-05 23:26:00,
2013-01-05 18:32:00,35.0,18.7,30.18,SSW,207,0.0,11.0,51,0.00,,SKC,0.00,VWS V14.01,2013-01-05 23:32:00,
2013-01-05 18:38:00,35.2,18.9,30.18,SSW,210,0.0,4.0,51,0.00,,SKC,0.00,VWS V14.01,2013-01-05 23:38:00,
2013-01-05 18:44:00,35.2,18.9,30.18,SSW,208,0.0,5.0,51,0.00,,SKC,0.00,VWS V14.01,2013-01-05 23:44:00,
2013-01-05 18:50:00,35.3,18.1,30.18,SW,216,0.0,6.0,49,0.00,,SKC,0.00,VWS V14.01,2013-01-05 23:50:00,
2013-01-05 18:56:00,35.5,17.8,30.19,West,260,5.0,11.0,48,0.00,,SKC,0.00,VWS V14.01,2013-01-05 23:56:00,
2013-01-05 19:02:00,35.6,17.9,30.19,SW,214,0.0,11.0,48,0.00,,SKC,0.00,VWS V14.01,2013-01-06 00:02:00,
2013-01-05 19:08:00,35.6,17.9,30.18,SW,221,3.0,5.0,48,0.00,,SKC,0.00,VWS V14.01,2013-01-06 00:08:00,
2013-01-05 19:14:00,35.8,18.0,30.18,SW,227,4.0,10.0,48,0.00,,SKC,0.00,VWS V14.01,2013-01-06 00:14:00,
2013-01-05 19:20:00,35.6,17.9,30.18,SW,220,5.0,10.0,48,0.00,,SKC,0.00,VWS V14.01,2013-01-06 00:20:00,
2013-01-05 19:26:00,35.8,17.6,30.17,SSW,202,4.0,9.0,47,0.00,,SKC,0.00,VWS V14.01,2013-01-06 00:26:00,
2013-01-05 19:32:00,35.9,17.1,30.17,SSW,205,3.0,12.0,46,0.00,,SKC,0.00,VWS V14.01,2013-01-06 00:32:00,
2013-01-05 19:38:00,35.9,17.1,30.17,SW,214,0.0,6.0,46,0.00,,SKC,0.00,VWS V14.01,2013-01-06 00:38:00,
2013-01-05 19:44:00,35.9,18.1,30.17,SSW,212,3.0,10.0,48,0.00,,SKC,0.00,VWS V14.01,2013-01-06 00:44:00,
2013-01-05 19:50:00,35.8,18.0,30.17,SSW,212,2.0,10.0,48,0.00,,SKC,0.00,VWS V14.01,2013-01-06 00:50:00,
2013-01-05 19:56:00,35.6,19.3,30.17,SSW,212,4.0,4.0,51,0.00,,SKC,0.00,VWS V14.01,2013-01-06 00:56:00,
2013-01-05 20:02:00,35.3,19.0,30.17,SSW,208,0.0,10.0,51,0.00,,SKC,0.00,VWS V14.01,2013-01-06 01:02:00,
2013-01-05 20:08:00,35.5,17.8,30.16,SW,218,0.0,0.0,48,0.00,,SKC,0.00,VWS V14.01,2013-01-06 01:08:00,
2013-01-05 20:14:00,35.5,21.0,30.16,SW,219,0.0,5.0,55,0.00,,SKC,0.00,VWS V14.01,2013-01-06 01:14:00,
2013-01-05 20:20:00,35.0,21.7,30.16,SW,219,0.0,5.0,58,0.00,,SKC,0.00,VWS V14.01,2013-01-06 01:20:00,
2013-01-05 20:26:00,34.4,22.4,30.16,SW,221,0.0,3.0,61,0.00,,SKC,0.00,VWS V14.01,2013-01-06 01:26:00,
2013-01-05 20:32:00,34.6,19.2,30.16,SW,217,5.0,8.0,53,0.00,,SKC,0.00,VWS V14.01,2013-01-06 01:32:00,
2013-01-05 20:38:00,35.5,17.8,30.17,SSW,204,6.0,10.0,48,0.00,,SKC,0.00,VWS V14.01,2013-01-06 01:38:00,
2013-01-05 20:44:00,36.2,16.9,30.17,SSW,202,3.0,12.0,45,0.00,,SKC,0.00,VWS V14.01,2013-01-06 01:44:00,
2013-01-05 20:50:00,36.0,19.6,30.17,SSW,193,5.0,15.0,51,0.00,,SKC,0.00,VWS V14.01,2013-01-06 01:50:00,
2013-01-05 20:56:00,35.3,20.8,30.16,SW,225,0.0,13.0,55,0.00,,SKC,0.00,VWS V14.01,2013-01-06 01:56:00,
2013-01-05 21:02:00,35.2,21.9,30.16,SSW,207,0.0,13.0,58,0.00,,SKC,0.00,VWS V14.01,2013-01-06 02:02:00,
2013-01-05 21:08:00,35.2,21.1,30.16,SSW,203,5.0,10.0,56,0.00,,SKC,0.00,VWS V14.01,2013-01-06 02:08:00,
2013-01-05 21:14:00,35.3,19.9,30.16,SSW,209,5.0,11.0,53,0.00,,SKC,0.00,VWS V14.01,2013-01-06 02:14:00,
2013-01-05 21:20:00,35.5,20.1,30.16,SSW,207,2.0,11.0,53,0.00,,SKC,0.00,VWS V14.01,2013-01-06 02:20:00,
2013-01-05 21:26:00,35.8,19.0,30.13,SSW,207,2.0,15.0,50,0.00,,SKC,0.00,VWS V14.01,2013-01-06 02:26:00,
2013-01-05 21:32:00,36.0,19.6,30.13,WSW,237,2.0,15.0,51,0.00,,SKC,0.00,VWS V14.01,2013-01-06 02:32:00,
2013-01-05 21:38:00,36.0,18.7,30.12,SSW,199,0.0,11.0,49,0.00,,SKC,0.00,VWS V14.01,2013-01-06 02:38:00,
2013-01-05 21:45:00,36.2,18.4,30.12,SW,231,9.0,12.0,48,0.00,,SKC,0.00,VWS V14.01,2013-01-06 02:45:00,
2013-01-05 21:51:00,36.5,18.2,30.12,South,182,6.0,15.0,47,0.00,,SKC,0.00,VWS V14.01,2013-01-06 02:51:00,
2013-01-05 21:57:00,36.6,18.3,30.12,South,186,10.0,16.0,47,0.00,,SKC,0.00,VWS V14.01,2013-01-06 02:57:00,
2013-01-05 22:03:00,36.5,18.7,30.12,SSW,202,0.0,16.0,48,0.00,,SKC,0.00,VWS V14.01,2013-01-06 03:03:00,
2013-01-05 22:09:00,36.3,18.5,30.11,SSW,193,5.0,11.0,48,0.00,,SKC,0.00,VWS V14.01,2013-01-06 03:09:00,
2013-01-05 22:15:00,36.3,18.0,30.11,SSW,206,3.0,11.0,47,0.00,,SKC,0.00,VWS V14.01,2013-01-06 03:15:00,
2013-01-05 22:21:00,36.6,17.8,30.10,South,190,8.0,18.0,46,0.00,,SKC,0.00,VWS V14.01,2013-01-06 03:21:00,
2013-01-05 22:27:00,36.8,18.5,30.10,SSW,193,10.0,15.0,47,0.00,,SKC,0.00,VWS V14.01,2013-01-06 03:27:00,
2013-01-05 22:33:00,36.5,18.7,30.10,South,188,6.0,19.0,48,0.00,,SKC,0.00,VWS V14.01,2013-01-06 03:33:00,
2013-01-05 22:39:00,36.3,18.5,30.09,SSW,199,5.0,13.0,48,0.00,,SKC,0.00,VWS V14.01,2013-01-06 03:39:00,
2013-01-05 22:45:00,36.3,18.0,30.09,SSW,192,9.0,16.0,47,0.00,,SKC,0.00,VWS V14.01,2013-01-06 03:45:00,